createdAt,value
2018-06-03T00:01:24.533Z,99.90
2018-06-03T00:04:28.178Z,99.90
2018-06-03T00:07:31.909Z,99.90
2018-06-03T00:10:35.551Z,99.90
2018-06-03T00:13:39.167Z,99.90
2018-06-03T00:19:46.171Z,99.90
2018-06-03T00:22:49.959Z,99.90
2018-06-03T00:25:53.569Z,99.90
2018-06-03T00:32:00.586Z,99.90
2018-06-03T00:35:04.190Z,99.90
2018-06-03T00:38:07.794Z,99.90
2018-06-03T00:41:11.431Z,99.90
2018-06-03T00:44:15.059Z,99.90
2018-06-03T00:47:18.794Z,99.90
2018-06-03T00:50:22.374Z,99.90
2018-06-03T00:53:26.010Z,99.90
2018-06-03T00:56:41.078Z,99.90
2018-06-03T00:59:44.881Z,99.90
2018-06-03T01:02:48.577Z,99.90
2018-06-03T01:05:52.205Z,99.90
2018-06-03T01:08:55.854Z,99.90
2018-06-03T01:11:59.740Z,99.90
2018-06-03T01:15:03.451Z,99.90
2018-06-03T01:18:07.087Z,99.90
2018-06-03T01:21:10.696Z,99.90
2018-06-03T01:24:14.309Z,99.90
2018-06-03T01:27:17.926Z,99.90
2018-06-03T01:30:21.551Z,99.90
2018-06-03T01:33:25.437Z,99.90
2018-06-03T01:36:29.065Z,99.90
2018-06-03T01:39:32.673Z,99.90
2018-06-03T01:42:36.302Z,99.90
2018-06-03T01:45:39.927Z,99.90
2018-06-03T01:48:43.557Z,99.90
2018-06-03T01:51:47.531Z,99.90
2018-06-03T01:54:51.694Z,99.90
2018-06-03T01:57:55.290Z,99.90
2018-06-03T02:00:58.923Z,99.90
2018-06-03T02:04:02.570Z,99.90
2018-06-03T02:07:06.191Z,99.90
2018-06-03T02:10:09.805Z,99.90
2018-06-03T02:13:13.436Z,99.90
2018-06-03T02:16:17.126Z,99.90
2018-06-03T02:19:20.779Z,99.90
2018-06-03T02:22:24.394Z,99.90
2018-06-03T02:25:28.024Z,99.90
2018-06-03T02:28:31.626Z,99.90
2018-06-03T02:31:40.241Z,99.90
2018-06-03T02:34:43.850Z,99.90
2018-06-03T02:37:48.785Z,99.90
2018-06-03T02:40:52.396Z,99.90
2018-06-03T02:43:56.029Z,99.90
2018-06-03T02:46:59.669Z,99.90
2018-06-03T02:50:03.294Z,99.90
2018-06-03T02:53:06.901Z,99.90
2018-06-03T02:56:10.534Z,99.90
2018-06-03T03:02:17.501Z,99.90
2018-06-03T03:05:21.128Z,99.90
2018-06-03T03:11:28.090Z,99.90
2018-06-03T03:14:31.728Z,99.90
2018-06-03T03:20:38.799Z,99.90
2018-06-03T03:23:42.967Z,99.90
2018-06-03T03:26:46.606Z,99.90
2018-06-03T03:29:50.213Z,99.90
2018-06-03T03:32:53.858Z,99.90
2018-06-03T03:39:00.956Z,99.90
2018-06-03T03:42:04.566Z,99.90
2018-06-03T03:45:08.265Z,99.90
2018-06-03T03:51:15.243Z,99.90
2018-06-03T03:57:22.736Z,99.90
2018-06-03T04:00:26.624Z,99.90
2018-06-03T04:03:30.258Z,99.90
2018-06-03T04:06:33.874Z,99.90
2018-06-03T04:09:37.498Z,99.90
2018-06-03T04:12:41.124Z,99.90
2018-06-03T04:15:44.737Z,99.90
2018-06-03T04:18:48.352Z,99.90
2018-06-03T04:21:51.989Z,99.90
2018-06-03T04:24:55.582Z,99.90
2018-06-03T04:27:59.219Z,99.90
2018-06-03T04:31:02.836Z,99.90
2018-06-03T04:34:06.487Z,99.90
2018-06-03T04:37:10.158Z,99.90
2018-06-03T04:40:13.787Z,99.90
2018-06-03T04:43:17.398Z,99.90
2018-06-03T04:46:21.013Z,99.90
2018-06-03T04:49:24.716Z,99.90
2018-06-03T04:52:28.341Z,99.90
2018-06-03T04:55:31.963Z,99.90
2018-06-03T04:58:35.596Z,99.90
2018-06-03T05:01:39.211Z,99.90
2018-06-03T05:04:42.840Z,99.90
2018-06-03T05:07:46.455Z,99.90
2018-06-03T05:10:50.146Z,99.90
2018-06-03T05:13:53.746Z,99.90
2018-06-03T05:16:57.403Z,99.90
2018-06-03T05:20:01.001Z,99.90
2018-06-03T05:23:04.973Z,99.90
2018-06-03T05:26:08.582Z,99.90
2018-06-03T05:29:12.238Z,99.90
2018-06-03T05:32:15.825Z,99.90
2018-06-03T05:35:19.450Z,99.90
2018-06-03T05:41:26.467Z,99.90
2018-06-03T05:44:30.077Z,99.90
2018-06-03T05:47:33.701Z,99.90
2018-06-03T05:50:37.317Z,99.90
2018-06-03T05:53:40.942Z,99.90
2018-06-03T05:56:44.558Z,99.90
2018-06-03T06:02:51.515Z,99.90
2018-06-03T06:05:55.162Z,99.90
2018-06-03T06:08:58.807Z,99.90
2018-06-03T06:12:02.406Z,99.90
2018-06-03T06:15:06.032Z,99.90
2018-06-03T06:18:09.658Z,99.90
2018-06-03T06:21:13.267Z,99.90
2018-06-03T06:27:20.408Z,99.90
2018-06-03T06:30:24.044Z,99.90
2018-06-03T06:33:27.685Z,99.90
2018-06-03T06:36:31.310Z,99.90
2018-06-03T06:39:34.929Z,99.90
2018-06-03T06:42:38.563Z,99.90
2018-06-03T06:45:42.171Z,99.90
2018-06-03T06:48:45.915Z,99.90
2018-06-03T06:51:50.286Z,99.90
2018-06-03T06:54:54.017Z,99.90
2018-06-03T06:57:57.599Z,99.90
2018-06-03T07:01:01.459Z,99.90
2018-06-03T07:04:05.076Z,99.90
2018-06-03T07:07:08.737Z,99.90
2018-06-03T07:10:12.338Z,99.90
2018-06-03T07:16:19.334Z,99.90
2018-06-03T07:22:26.630Z,99.90
2018-06-03T07:25:30.293Z,99.90
2018-06-03T07:28:33.982Z,99.90
2018-06-03T07:31:37.927Z,99.90
2018-06-03T07:34:41.566Z,99.90
2018-06-03T07:37:45.196Z,99.90
2018-06-03T07:40:48.815Z,99.90
2018-06-03T07:43:52.453Z,99.90
2018-06-03T07:46:56.091Z,99.90
2018-06-03T07:50:00.067Z,99.90
2018-06-03T07:53:03.682Z,99.90
2018-06-03T07:56:07.350Z,99.90
2018-06-03T07:59:10.958Z,99.90
2018-06-03T08:02:14.590Z,99.90
2018-06-03T08:05:18.211Z,99.90
2018-06-03T08:08:21.856Z,99.90
2018-06-03T08:11:25.458Z,99.90
2018-06-03T08:14:29.094Z,99.90
2018-06-03T08:20:36.079Z,99.90
2018-06-03T08:23:39.974Z,99.90
2018-06-03T08:26:43.607Z,99.90
2018-06-03T08:29:47.268Z,99.90
2018-06-03T08:32:50.866Z,99.90
2018-06-03T08:35:54.475Z,99.90
2018-06-03T08:38:58.109Z,99.90
2018-06-03T08:42:01.812Z,99.90
2018-06-03T08:45:05.447Z,99.90
2018-06-03T08:54:22.359Z,99.90
2018-06-03T08:57:26.071Z,99.90
2018-06-03T09:00:29.841Z,99.90
2018-06-03T09:03:33.671Z,99.90
2018-06-03T09:09:40.745Z,99.90
2018-06-03T09:12:44.375Z,99.90
2018-06-03T09:18:52.457Z,99.90
2018-06-03T09:21:56.109Z,99.90
2018-06-03T09:24:59.746Z,99.90
2018-06-03T09:28:03.378Z,99.90
2018-06-03T09:31:07.276Z,99.90
2018-06-03T09:34:10.922Z,99.90
2018-06-03T09:40:18.691Z,99.90
2018-06-03T09:43:22.313Z,99.90
2018-06-03T09:46:25.967Z,99.90
2018-06-03T09:49:29.620Z,99.90
2018-06-03T09:52:33.260Z,99.90
2018-06-03T09:55:43.416Z,99.90
2018-06-03T09:58:47.091Z,99.90
2018-06-03T10:01:50.757Z,99.90
2018-06-03T10:04:54.515Z,99.90
2018-06-03T10:07:58.114Z,99.90
2018-06-03T10:11:01.805Z,99.90
2018-06-03T10:14:05.445Z,99.90
2018-06-03T10:17:09.106Z,99.90
2018-06-03T10:20:13.068Z,99.90
2018-06-03T10:23:16.712Z,99.90
2018-06-03T10:26:20.391Z,99.90
2018-06-03T10:29:24.032Z,99.90
2018-06-03T10:32:27.681Z,99.90
2018-06-03T10:35:31.321Z,99.90
2018-06-03T10:38:34.945Z,99.90
2018-06-03T10:41:38.583Z,99.90
2018-06-03T10:44:42.207Z,99.90
2018-06-03T10:47:45.834Z,99.90
2018-06-03T10:50:49.455Z,99.90
2018-06-03T10:56:56.483Z,99.90
2018-06-03T11:00:00.133Z,99.90
2018-06-03T11:03:03.738Z,99.90
2018-06-03T11:06:07.491Z,99.90
2018-06-03T11:09:11.126Z,99.90
2018-06-03T11:12:14.797Z,99.90
2018-06-03T11:15:18.421Z,99.90
2018-06-03T11:18:22.099Z,99.90
2018-06-03T11:21:25.727Z,99.90
2018-06-03T11:24:29.384Z,99.90
2018-06-03T11:33:39.824Z,99.90
2018-06-03T11:36:43.499Z,99.90
2018-06-03T11:39:47.158Z,99.90
2018-06-03T11:42:50.891Z,99.90
2018-06-03T11:45:54.494Z,99.90
2018-06-03T11:48:58.170Z,99.90
2018-06-03T11:52:08.327Z,99.90
2018-06-03T11:55:11.990Z,99.90
2018-06-03T11:58:54.627Z,99.90
2018-06-03T12:01:58.269Z,99.90
2018-06-03T12:08:05.304Z,99.90
2018-06-03T12:11:08.972Z,99.90
2018-06-03T12:14:12.616Z,99.90
2018-06-03T12:17:16.278Z,99.90
2018-06-03T12:20:19.894Z,99.90
2018-06-03T12:23:23.524Z,99.90
2018-06-03T12:26:27.170Z,99.90
2018-06-03T12:29:30.792Z,99.90
2018-06-03T12:32:34.459Z,99.90
2018-06-03T12:35:38.091Z,99.90
2018-06-03T12:38:42.000Z,99.90
2018-06-03T12:44:49.025Z,99.90
2018-06-03T12:47:52.631Z,99.90
2018-06-03T12:50:56.246Z,99.90
2018-06-03T12:53:59.879Z,99.90
2018-06-03T12:57:03.523Z,99.90
2018-06-03T13:00:07.148Z,99.90
2018-06-03T13:03:10.896Z,99.90
2018-06-03T13:06:14.508Z,99.90
2018-06-03T13:09:18.143Z,99.90
2018-06-03T13:12:23.293Z,99.90
2018-06-03T13:15:26.949Z,99.90
2018-06-03T13:21:33.960Z,99.90
2018-06-03T13:27:40.996Z,99.90
2018-06-03T13:30:44.628Z,99.90
2018-06-03T13:33:48.389Z,99.90
2018-06-03T13:36:52.071Z,99.90
2018-06-03T13:39:55.772Z,99.90
2018-06-03T13:42:59.369Z,99.90
2018-06-03T13:49:06.578Z,99.90
2018-06-03T13:52:10.233Z,99.90
2018-06-03T13:55:13.886Z,99.90
2018-06-03T14:01:20.904Z,99.90
2018-06-03T14:04:24.533Z,99.90
2018-06-03T14:07:28.153Z,99.60
2018-06-03T14:10:31.790Z,99.60
2018-06-03T14:16:38.890Z,99.90
2018-06-03T14:19:42.591Z,99.90
2018-06-03T14:22:46.226Z,99.90
2018-06-03T14:25:49.859Z,99.70
2018-06-03T14:28:54.578Z,99.40
2018-06-03T14:31:58.381Z,99.40
2018-06-03T14:35:01.963Z,99.30
2018-06-03T14:38:05.613Z,99.30
2018-06-03T14:41:09.646Z,99.40
2018-06-03T14:44:13.368Z,99.70
2018-06-03T14:53:23.914Z,99.30
2018-06-03T14:56:27.563Z,99.90
2018-06-03T14:59:31.207Z,99.90
2018-06-03T15:02:34.911Z,99.90
2018-06-03T15:05:38.540Z,99.40
2018-06-03T15:08:42.150Z,99.20
2018-06-03T15:11:45.813Z,98.50
2018-06-03T15:17:52.917Z,98.90
2018-06-03T15:20:56.545Z,98.80
2018-06-03T15:24:00.230Z,99.20
2018-06-03T15:27:03.917Z,99.00
2018-06-03T15:30:07.552Z,99.40
2018-06-03T15:33:11.160Z,99.70
2018-06-03T15:36:14.887Z,99.30
2018-06-03T15:39:18.490Z,99.10
2018-06-03T15:42:22.192Z,99.10
2018-06-03T15:48:29.212Z,99.20
2018-06-03T15:51:32.872Z,99.60
2018-06-03T15:54:36.498Z,99.50
2018-06-03T16:00:43.836Z,99.10
2018-06-03T16:03:47.475Z,99.10
2018-06-03T16:06:51.120Z,99.40
2018-06-03T16:12:58.113Z,98.90
2018-06-03T16:16:01.785Z,98.80
2018-06-03T16:19:05.541Z,99.40
2018-06-03T16:22:09.130Z,99.00
2018-06-03T16:25:12.757Z,99.90
2018-06-03T16:28:16.423Z,99.90
2018-06-03T16:31:20.086Z,99.90
2018-06-03T16:34:23.683Z,99.90
2018-06-03T16:37:27.351Z,99.90
2018-06-03T16:43:34.362Z,99.90
2018-06-03T16:46:38.008Z,99.90
2018-06-03T16:49:41.653Z,99.90
2018-06-03T16:52:45.277Z,99.90
2018-06-03T16:55:48.939Z,99.90
2018-06-03T16:58:52.574Z,99.90
2018-06-03T17:01:56.195Z,99.90
2018-06-03T17:04:59.814Z,99.90
2018-06-03T17:08:03.460Z,99.90
2018-06-03T17:11:07.166Z,99.90
2018-06-03T17:14:11.047Z,99.90
2018-06-03T17:17:14.678Z,99.90
2018-06-03T17:20:18.361Z,99.90
2018-06-03T17:26:25.437Z,99.90
2018-06-03T17:29:29.054Z,99.90
2018-06-03T17:32:32.710Z,99.90
2018-06-03T17:35:36.337Z,99.90
2018-06-03T17:38:40.301Z,99.90
2018-06-03T17:41:43.985Z,99.90
2018-06-03T17:44:47.599Z,99.90
2018-06-03T17:47:51.232Z,99.90
2018-06-03T17:50:54.874Z,99.90
2018-06-03T17:53:58.554Z,99.90
2018-06-03T17:57:02.232Z,99.90
2018-06-03T18:00:05.846Z,99.90
2018-06-03T18:03:09.507Z,99.90
2018-06-03T18:06:13.181Z,99.90
2018-06-03T18:09:16.911Z,99.90
2018-06-03T18:12:20.499Z,99.90
2018-06-03T18:18:27.504Z,99.90
2018-06-03T18:24:34.496Z,99.90
2018-06-03T18:30:41.495Z,99.90
2018-06-03T18:36:48.528Z,99.90
2018-06-03T18:39:52.170Z,99.90
2018-06-03T18:42:55.811Z,99.90
2018-06-03T18:45:59.510Z,99.90
2018-06-03T18:49:03.216Z,99.90
2018-06-03T18:52:06.833Z,99.90
2018-06-03T18:55:10.519Z,99.90
2018-06-03T18:58:14.153Z,99.90
2018-06-03T19:01:24.370Z,99.90
2018-06-03T19:07:31.330Z,99.90
2018-06-03T19:10:34.982Z,99.90
2018-06-03T19:13:38.689Z,99.90
2018-06-03T19:16:42.392Z,99.90
2018-06-03T19:19:46.021Z,99.90
2018-06-03T19:22:49.736Z,99.90
2018-06-03T19:25:53.427Z,99.90
2018-06-03T19:28:57.072Z,99.90
2018-06-03T19:32:00.737Z,99.90
2018-06-03T19:35:04.793Z,99.90
2018-06-03T19:38:08.425Z,99.90
2018-06-03T19:41:12.059Z,99.90
2018-06-03T19:44:15.684Z,99.90
2018-06-03T19:47:19.332Z,99.90
2018-06-03T19:50:22.954Z,99.90
2018-06-03T19:53:26.600Z,99.90
2018-06-03T19:56:30.227Z,99.90
2018-06-03T20:02:37.310Z,99.90
2018-06-03T20:05:40.974Z,99.90
2018-06-03T20:08:44.596Z,99.90
2018-06-03T20:11:48.247Z,99.90
2018-06-03T20:14:51.864Z,99.90
2018-06-03T20:17:55.614Z,99.90
2018-06-03T20:20:59.398Z,99.90
2018-06-03T20:24:03.053Z,99.90
2018-06-03T20:30:10.138Z,99.90
2018-06-03T20:33:13.763Z,99.90
2018-06-03T20:36:17.425Z,99.90
2018-06-03T20:39:21.039Z,99.90
2018-06-03T20:42:24.720Z,99.90
2018-06-03T20:45:28.397Z,99.90
2018-06-03T20:48:32.022Z,99.90
2018-06-03T20:51:36.466Z,99.90
2018-06-03T20:54:40.099Z,99.90
2018-06-03T20:57:43.715Z,99.90
2018-06-03T21:00:47.457Z,99.90
2018-06-03T21:03:51.067Z,99.90
2018-06-03T21:06:54.732Z,99.90
2018-06-03T21:09:58.364Z,99.90
2018-06-03T21:13:02.003Z,99.90
2018-06-03T21:16:05.658Z,99.90
2018-06-03T21:19:09.278Z,99.90
2018-06-03T21:22:12.878Z,99.90
2018-06-03T21:25:16.645Z,99.90
2018-06-03T21:28:20.265Z,99.90
2018-06-03T21:31:23.926Z,99.90
2018-06-03T21:37:30.884Z,99.90
2018-06-03T21:40:34.573Z,99.90
2018-06-03T21:43:38.212Z,99.90
2018-06-03T21:46:42.613Z,99.90
2018-06-03T21:49:46.254Z,99.90
2018-06-03T21:55:53.236Z,99.90
2018-06-03T22:02:00.403Z,99.90
2018-06-03T22:05:04.043Z,99.90
2018-06-03T22:11:11.026Z,99.90
2018-06-03T22:14:14.671Z,99.90
2018-06-03T22:17:18.299Z,99.90
2018-06-03T22:20:21.930Z,99.90
2018-06-03T22:23:25.542Z,99.90
2018-06-03T22:29:39.232Z,99.90
2018-06-03T22:32:42.870Z,99.90
2018-06-03T22:35:46.495Z,99.90
2018-06-03T22:38:50.125Z,99.90
2018-06-03T22:41:53.775Z,99.90
2018-06-03T22:44:57.410Z,99.90
2018-06-03T22:48:01.116Z,99.90
2018-06-03T22:51:04.759Z,99.90
2018-06-03T22:54:08.378Z,99.90
2018-06-03T22:57:47.741Z,99.90
2018-06-03T23:00:51.823Z,99.90
2018-06-03T23:03:55.489Z,99.90
2018-06-03T23:06:59.082Z,99.90
2018-06-03T23:13:06.820Z,99.90
2018-06-03T23:16:10.469Z,99.90
2018-06-03T23:19:14.099Z,99.90
2018-06-03T23:25:21.084Z,99.90
2018-06-03T23:28:24.724Z,99.90
2018-06-03T23:31:28.407Z,99.90
2018-06-03T23:37:35.382Z,99.90
2018-06-03T23:40:39.011Z,99.90
2018-06-03T23:46:46.115Z,99.90
2018-06-03T23:55:56.628Z,99.90
2018-06-03T23:59:00.261Z,99.90
